Time;durP1;ratioP1;P1;durP2;ratioP2;P2;SDS_P1;SDS_P2;PMS_P1;PMS_P2;Temp;Humidity;BMP_temperature;BMP_pressure;BME280_temperature;BME280_humidity;BME280_pressure;Samples;Min_cycle;Max_cycle;Signal;HPM_P1;HPM_P2
2022/08/19 00:01:58;;;;;;;22.17;20.67;;;;;;;-141.02;81.46;81632.50;5155297;27;20197;-77
2022/08/19 00:04:28;;;;;;;22.05;20.63;;;;;;;-141.02;82.76;81686.88;5155248;27;20196;-78
2022/08/19 00:06:57;;;;;;;21.48;20.08;;;;;;;-141.02;83.55;81679.09;5154870;27;20665;-77
2022/08/19 00:09:24;;;;;;;20.00;18.70;;;;;;;-141.02;84.60;81677.16;5155159;27;20191;-79
2022/08/19 00:11:52;;;;;;;20.60;19.30;;;;;;;-141.02;85.79;81669.41;5155092;27;20308;-77
2022/08/19 00:14:20;;;;;;;20.55;19.25;;;;;;;-141.02;86.81;81700.47;5155137;27;20240;-78
2022/08/19 00:16:51;;;;;;;20.35;19.05;;;;;;;-141.02;87.76;81683.00;5154707;27;20605;-79
2022/08/19 00:19:18;;;;;;;20.38;19.08;;;;;;;-141.02;88.49;81706.28;5155112;27;20188;-78
2022/08/19 00:21:45;;;;;;;20.08;18.77;;;;;;;-141.02;88.49;81725.72;5155016;27;20618;-77
2022/08/19 00:24:14;;;;;;;21.00;19.70;;;;;;;-141.02;87.44;81686.88;5154901;27;20282;-77
2022/08/19 00:26:42;;;;;;;20.80;19.50;;;;;;;-141.02;85.43;81698.53;5154558;27;20282;-79
2022/08/19 00:29:11;;;;;;;20.25;18.95;;;;;;;-141.02;84.87;81640.28;5154007;27;20227;-78
2022/08/19 00:31:38;;;;;;;20.92;19.60;;;;;;;-141.02;82.75;81640.28;5154462;27;20227;-79
2022/08/19 00:34:07;;;;;;;21.73;20.33;;;;;;;-141.02;81.00;81628.63;5154314;27;20231;-78
2022/08/19 00:36:34;;;;;;;21.88;20.40;;;;;;;-141.02;80.66;81605.31;5154683;27;20192;-77
2022/08/19 00:39:01;;;;;;;21.52;20.13;;;;;;;-141.02;81.15;81593.66;5154226;27;20714;-79
2022/08/19 00:41:29;;;;;;;21.77;20.35;;;;;;;-141.02;82.09;81628.63;5154573;27;20241;-78
2022/08/19 00:44:05;;;;;;;21.70;20.30;;;;;;;-141.02;82.83;81632.50;5154195;27;20773;-80
2022/08/19 00:46:35;;;;;;;21.30;19.90;;;;;;;-141.02;82.80;81655.81;5154491;27;20215;-78
2022/08/19 00:49:07;;;;;;;21.48;20.08;;;;;;;-141.02;83.70;81651.91;5154193;27;20195;-79
2022/08/19 00:51:36;;;;;;;21.30;19.90;;;;;;;-141.02;84.08;81683.00;5154448;27;20271;-78
2022/08/19 00:54:04;;;;;;;21.15;19.75;;;;;;;-141.02;85.53;81506.28;5154083;27;20433;-77
2022/08/19 00:56:32;;;;;;;21.45;20.05;;;;;;;-141.02;86.48;81694.63;5154021;27;20196;-79
2022/08/19 00:59:01;;;;;;;19.92;18.73;;;;;;;-141.02;86.58;81706.28;5153966;27;20668;-78
2022/08/19 01:01:28;;;;;;;21.85;20.45;;;;;;;-141.02;87.47;81690.75;5154001;27;20191;-77
2022/08/19 01:03:55;;;;;;;20.83;19.52;;;;;;;-141.02;87.14;81698.53;5153893;27;20282;-77
2022/08/19 01:06:22;;;;;;;20.40;19.10;;;;;;;-141.02;89.30;81754.84;5153879;27;20195;-80
2022/08/19 01:08:51;;;;;;;20.05;18.75;;;;;;;-141.02;92.02;81766.50;5153823;27;20198;-79
2022/08/19 01:11:18;;;;;;;20.17;18.90;;;;;;;-141.02;93.21;81803.38;5154189;27;20221;-79
2022/08/19 01:13:46;;;;;;;19.67;18.48;;;;;;;-141.02;95.01;81807.25;5153791;27;20653;-79
2022/08/19 01:16:15;;;;;;;19.38;18.23;;;;;;;-141.02;96.55;81811.16;5153838;27;20270;-79
2022/08/19 01:18:43;;;;;;;19.50;18.30;;;;;;;-141.02;96.76;81848.03;5153733;27;20712;-79
2022/08/19 01:21:18;;;;;;;19.40;18.30;;;;;;;-141.02;97.60;81818.91;5153742;27;20674;-78
2022/08/19 01:23:47;;;;;;;19.27;18.17;;;;;;;-141.02;97.49;81838.34;5153728;27;20215;-76
2022/08/19 01:26:17;;;;;;;19.02;17.92;;;;;;;-141.02;97.18;81807.25;5153632;27;20282;-77
2022/08/19 01:28:47;;;;;;;18.70;17.60;;;;;;;-141.02;98.02;81820.84;5153694;27;20286;-79
2022/08/19 01:31:16;;;;;;;18.63;17.52;;;;;;;-141.02;98.76;81838.34;5153584;27;20200;-79
2022/08/19 01:33:44;;;;;;;18.15;17.15;;;;;;;-141.02;100.00;81867.47;5153900;27;20291;-77
2022/08/19 01:36:13;;;;;;;18.40;17.40;;;;;;;-141.02;100.00;81853.88;5153526;27;20583;-80
2022/08/19 01:38:44;;;;;;;18.17;17.17;;;;;;;-141.02;100.00;81857.75;5153494;27;20263;-79
2022/08/19 01:41:13;;;;;;;18.65;17.65;;;;;;;-141.02;100.00;81873.28;5157881;27;20187;-79
2022/08/19 01:43:41;;;;;;;18.70;17.70;;;;;;;-141.02;100.00;81888.81;5158066;27;20203;-79
2022/08/19 01:46:08;;;;;;;17.50;16.60;;;;;;;-141.02;100.00;81776.19;5157694;27;20248;-79
2022/08/19 01:48:36;;;;;;;18.00;17.00;;;;;;;-141.02;100.00;81881.06;5157901;27;20626;-77
2022/08/19 01:51:04;;;;;;;18.40;17.40;;;;;;;-141.02;100.00;82793.88;5157920;27;20295;-76
2022/08/19 01:53:31;;;;;;;17.95;16.95;;;;;;;-141.02;100.00;81706.28;5157477;27;20728;-79
2022/08/19 01:55:58;;;;;;;18.30;17.30;;;;;;;-141.02;100.00;81873.28;5157562;27;20229;-75
2022/08/19 01:58:32;;;;;;;18.48;17.48;;;;;;;-141.02;100.00;81582.03;5157332;27;20777;-77
2022/08/19 02:01:00;;;;;;;19.42;18.33;;;;;;;-141.02;100.00;81867.47;5157672;27;20270;-75
2022/08/19 02:03:28;;;;;;;18.50;17.50;;;;;;;-141.02;100.00;81873.28;5157347;27;20287;-77
2022/08/19 02:05:59;;;;;;;18.23;17.23;;;;;;;-141.02;100.00;81906.31;5157588;27;20235;-76
2022/08/19 02:08:27;;;;;;;18.50;17.50;;;;;;;-141.02;100.00;81884.94;5157307;27;20677;-74
2022/08/19 02:10:54;;;;;;;17.77;16.85;;;;;;;-141.02;100.00;81881.06;5157499;27;20188;-77
2022/08/19 02:13:21;;;;;;;17.77;16.80;;;;;;;-141.02;100.00;81912.13;5157201;27;20248;-75
2022/08/19 02:15:50;;;;;;;18.50;17.50;;;;;;;-141.02;100.00;81888.81;5157119;27;20657;-76
2022/08/19 02:18:17;;;;;;;18.13;17.15;;;;;;;-141.02;100.00;81962.63;5156845;27;20242;-76
2022/08/19 02:20:46;;;;;;;18.88;17.88;;;;;;;-141.02;100.00;81966.50;5157052;27;20337;-76
2022/08/19 02:23:15;;;;;;;17.60;16.70;;;;;;;-141.02;100.00;81787.84;5157031;27;20202;-75
2022/08/19 02:25:44;;;;;;;17.40;16.50;;;;;;;-141.02;100.00;81939.31;5157253;27;20264;-74
2022/08/19 02:28:11;;;;;;;17.15;16.35;;;;;;;-141.02;100.00;81982.03;5157172;27;20192;-76
2022/08/19 02:30:39;;;;;;;17.40;16.50;;;;;;;-141.02;100.00;81931.53;5156809;27;20641;-75
2022/08/19 02:33:07;;;;;;;18.33;17.33;;;;;;;-141.02;100.00;81923.78;5156777;27;20738;-75
2022/08/19 02:35:34;;;;;;;17.58;16.67;;;;;;;-141.02;100.00;81923.78;5157020;27;20661;-76
2022/08/19 02:40:51;;;;;;;18.00;17.10;;;;;;;-141.02;100.00;81929.59;5157042;27;20263;-77
2022/08/19 02:43:19;;;;;;;17.60;16.70;;;;;;;-141.02;100.00;81927.66;5156598;27;20270;-76
2022/08/19 02:45:47;;;;;;;17.70;16.80;;;;;;;-141.02;100.00;81943.19;5156827;27;20191;-76
2022/08/19 02:48:18;;;;;;;17.38;16.48;;;;;;;-141.02;100.00;81910.19;5156730;27;20256;-76
2022/08/19 02:50:46;;;;;;;17.55;16.65;;;;;;;-141.02;100.00;81904.34;5155809;27;20194;-75
2022/08/19 02:53:13;;;;;;;17.55;16.65;;;;;;;-141.02;100.00;81954.84;5156550;27;20622;-73
2022/08/19 02:55:45;;;;;;;17.67;16.77;;;;;;;-141.02;100.00;81904.34;5156299;27;20287;-75
2022/08/19 02:58:13;;;;;;;17.45;16.55;;;;;;;-141.02;100.00;81886.88;5156604;27;20215;-77
2022/08/19 03:00:44;;;;;;;17.45;16.55;;;;;;;-141.02;100.00;81900.47;5156518;27;20215;-75
2022/08/19 03:03:12;;;;;;;17.58;16.67;;;;;;;-141.02;100.00;81933.50;5156547;27;20188;-76
2022/08/19 03:05:40;;;;;;;17.63;16.73;;;;;;;-141.02;100.00;81935.44;5156106;27;20196;-74
2022/08/19 03:08:11;;;;;;;17.65;16.75;;;;;;;-141.02;100.00;81925.72;5156390;27;20227;-77
2022/08/19 03:10:44;;;;;;;17.77;16.88;;;;;;;-141.02;100.00;81958.72;5156377;27;20187;-76
2022/08/19 03:13:13;;;;;;;17.17;16.27;;;;;;;-141.02;100.00;81888.81;5156045;27;20566;-75
2022/08/19 03:15:42;;;;;;;17.20;16.30;;;;;;;-141.02;100.00;81954.84;5156252;27;20234;-77
2022/08/19 03:18:09;;;;;;;17.48;16.58;;;;;;;-141.02;100.00;81939.31;5155932;27;20642;-76
2022/08/19 03:20:43;;;;;;;17.95;16.95;;;;;;;-141.02;100.00;81881.06;5155827;27;20651;-75
2022/08/19 03:23:10;;;;;;;18.08;17.08;;;;;;;-141.02;100.00;81900.47;5155846;27;20271;-76
2022/08/19 03:25:40;;;;;;;18.63;17.63;;;;;;;-141.02;100.00;81818.91;5156070;27;20195;-77
2022/08/19 03:28:07;;;;;;;18.27;17.27;;;;;;;-141.02;100.00;81904.34;5155932;27;20198;-77
2022/08/19 03:30:34;;;;;;;18.65;17.65;;;;;;;-141.02;100.00;81947.09;5155988;27;20219;-76
2022/08/19 03:33:01;;;;;;;17.25;16.35;;;;;;;-141.02;100.00;81976.22;5156360;27;20196;-75
2022/08/19 03:35:28;;;;;;;17.38;16.48;;;;;;;-141.02;100.00;81974.28;5155836;27;20192;-75
2022/08/19 03:37:57;;;;;;;17.58;16.67;;;;;;;-141.02;100.00;81970.38;5155422;27;20200;-76
2022/08/19 03:40:24;;;;;;;17.73;16.83;;;;;;;-141.02;100.00;81943.19;5155741;27;20192;-73
2022/08/19 03:42:51;;;;;;;17.83;16.92;;;;;;;-141.02;100.00;81921.84;5155767;27;20241;-77
2022/08/19 03:45:19;;;;;;;18.10;17.20;;;;;;;-141.02;100.00;81898.53;5155652;27;20188;-76
2022/08/19 03:47:46;;;;;;;17.83;16.92;;;;;;;-141.02;100.00;81921.84;5155295;27;20236;-77
2022/08/19 03:50:13;;;;;;;17.05;16.25;;;;;;;-141.02;100.00;81954.84;5155550;27;20192;-74
2022/08/19 03:52:40;;;;;;;17.98;17.17;;;;;;;-141.02;100.00;81900.47;5155543;27;20278;-77
2022/08/19 03:55:09;;;;;;;17.92;17.02;;;;;;;-141.02;100.00;81898.53;5155485;27;20196;-76
2022/08/19 03:57:36;;;;;;;17.15;16.35;;;;;;;-141.02;100.00;81919.91;5155476;27;20204;-75
2022/08/19 04:00:06;;;;;;;17.25;16.45;;;;;;;-141.02;100.00;81888.81;5155388;27;20600;-77
2022/08/19 04:02:33;;;;;;;17.70;16.90;;;;;;;-141.02;100.00;81904.34;5154987;27;20194;-76
2022/08/19 04:05:00;;;;;;;18.27;17.38;;;;;;;-141.02;100.00;81884.94;5155331;27;20188;-75
2022/08/19 04:07:27;;;;;;;18.15;17.25;;;;;;;-141.02;100.00;81857.75;5154926;27;20700;-73
2022/08/19 04:09:55;;;;;;;18.58;17.58;;;;;;;-141.02;100.00;81807.25;5155214;27;20268;-77
2022/08/19 04:12:23;;;;;;;18.40;17.50;;;;;;;-141.02;98.64;81774.25;5155436;27;20196;-73
2022/08/19 04:14:50;;;;;;;18.35;17.45;;;;;;;-141.02;96.77;81787.84;5155106;27;20226;-75
2022/08/19 04:17:17;;;;;;;18.48;17.48;;;;;;;-141.02;94.72;81683.00;5154712;27;20228;-75
2022/08/19 04:19:44;;;;;;;19.50;18.40;;;;;;;-141.02;92.41;81702.41;5155048;27;20289;-76
2022/08/19 04:22:12;;;;;;;19.17;18.08;;;;;;;-141.02;88.80;81630.56;5154967;27;20225;-74
2022/08/19 04:24:39;;;;;;;19.70;18.60;;;;;;;-141.02;85.70;81574.25;5155740;27;20195;-74
2022/08/19 04:27:06;;;;;;;20.40;19.20;;;;;;;-141.02;83.88;81541.25;5154537;27;20282;-74
2022/08/19 04:29:35;;;;;;;20.20;18.90;;;;;;;-141.02;81.21;81519.88;5154475;27;20570;-77
2022/08/19 04:32:02;;;;;;;20.38;19.10;;;;;;;-141.02;82.40;81549.00;5154456;27;20248;-75
2022/08/19 04:34:30;;;;;;;20.52;19.33;;;;;;;-141.02;80.25;81508.22;5154720;27;20196;-74
2022/08/19 04:36:59;;;;;;;20.23;18.98;;;;;;;-141.02;77.70;81448.03;5154713;27;20198;-76
2022/08/19 04:44:56;;;;;;;19.40;18.10;;;;;;;-141.02;80.28;81475.22;5154919;27;20244;-78
2022/08/19 04:47:23;;;;;;;19.60;18.30;;;;;;;-141.02;80.19;81444.16;5154190;27;20188;-76
2022/08/19 04:49:50;;;;;;;20.27;18.98;;;;;;;-141.02;79.47;81426.69;5155288;27;20234;-77
2022/08/19 04:52:17;;;;;;;19.75;18.45;;;;;;;-141.02;80.47;81488.81;5155069;27;20234;-76
2022/08/19 04:54:44;;;;;;;19.80;18.50;;;;;;;-141.02;81.31;81543.19;5154424;27;20188;-77
2022/08/19 04:57:11;;;;;;;19.75;18.45;;;;;;;-141.02;82.49;81519.88;5155187;27;20287;-77
2022/08/19 04:59:39;;;;;;;19.65;18.35;;;;;;;-141.02;81.15;81496.59;5153877;27;20262;-77
2022/08/19 05:02:09;;;;;;;19.30;18.00;;;;;;;-141.02;81.57;81475.22;5153941;27;20192;-78
2022/08/19 05:04:38;;;;;;;19.33;18.02;;;;;;;-141.02;81.82;81527.66;5153959;27;20286;-74
2022/08/19 05:07:06;;;;;;;19.48;18.27;;;;;;;-141.02;82.02;81523.75;5154179;27;20247;-74
2022/08/19 05:09:33;;;;;;;19.48;18.25;;;;;;;-141.02;81.21;81500.47;5153837;27;20235;-78
2022/08/19 05:12:00;;;;;;;20.15;18.85;;;;;;;-141.02;83.27;81512.13;5154886;27;20228;-77
2022/08/19 05:14:29;;;;;;;19.33;18.13;;;;;;;-141.02;83.24;81504.34;5153689;27;20225;-72
2022/08/19 05:16:55;;;;;;;19.50;18.30;;;;;;;-141.02;83.12;81527.66;5153644;27;20288;-74
2022/08/19 05:24:53;;;;;;;19.63;18.42;;;;;;;-141.02;81.85;81910.19;5154122;27;20569;-74
2022/08/19 05:27:20;;;;;;;19.35;18.25;;;;;;;-141.02;80.16;81465.50;5154003;27;20200;-76
2022/08/19 05:29:47;;;;;;;19.67;18.48;;;;;;;-141.02;79.82;81471.34;5153681;27;20278;-72
2022/08/19 05:32:14;;;;;;;20.75;19.55;;;;;;;-141.02;79.94;81438.34;5153972;27;20223;-75
2022/08/19 05:34:43;;;;;;;20.10;18.90;;;;;;;-141.02;78.40;81426.69;5153940;27;20192;-77
2022/08/19 05:37:11;;;;;;;20.42;19.23;;;;;;;-141.02;79.03;81411.16;5154149;27;20196;-74
2022/08/19 05:39:40;;;;;;;25.42;23.98;;;;;;;-141.02;79.66;81438.34;5153497;27;20583;-76
2022/08/19 05:42:10;;;;;;;19.80;18.63;;;;;;;-141.02;78.74;81411.16;5153813;27;20260;-73
2022/08/19 05:44:39;;;;;;;19.88;18.67;;;;;;;-141.02;78.04;81409.22;5153815;27;20199;-76
2022/08/19 05:47:09;;;;;;;20.88;19.58;;;;;;;-141.02;77.34;81350.97;5153811;27;20192;-76
2022/08/19 05:49:37;;;;;;;20.60;19.40;;;;;;;-141.02;77.54;81395.63;5153779;27;20196;-77
2022/08/19 05:52:10;;;;;;;19.55;18.35;;;;;;;-141.02;77.94;81401.44;5153557;27;20196;-75
2022/08/19 05:54:40;;;;;;;19.75;18.55;;;;;;;-141.02;76.73;81399.50;5153507;27;20661;-76
2022/08/19 05:57:07;;;;;;;19.50;18.30;;;;;;;-141.02;77.29;81401.44;5153722;27;20194;-73
2022/08/19 05:59:35;;;;;;;19.42;18.23;;;;;;;-141.02;76.63;81383.97;5153339;27;20230;-77
2022/08/19 06:02:02;;;;;;;19.65;18.45;;;;;;;-141.02;75.84;81383.97;5153722;27;20192;-74
2022/08/19 06:04:29;;;;;;;19.75;18.55;;;;;;;-141.02;75.57;81354.84;5153891;27;20255;-73
2022/08/19 06:06:58;;;;;;;20.58;19.27;;;;;;;-141.02;74.70;81362.59;5153331;27;20283;-77
2022/08/19 06:09:26;;;;;;;21.00;19.70;;;;;;;-141.02;73.84;81316.00;5154452;27;20223;-73
2022/08/19 06:11:57;;;;;;;21.10;19.80;;;;;;;-141.02;73.36;81275.25;5153600;27;20240;-78
2022/08/19 06:14:28;;;;;;;21.00;19.70;;;;;;;-141.02;71.90;81238.34;5153656;27;20188;-77
2022/08/19 06:16:55;;;;;;;20.77;19.48;;;;;;;-141.02;70.52;81255.81;5153039;27;20335;-76
2022/08/19 06:19:25;;;;;;;20.90;19.55;;;;;;;-141.02;69.03;81234.47;5153506;27;20224;-75
2022/08/19 06:21:53;;;;;;;20.42;19.10;;;;;;;-141.02;68.95;81217.00;5153514;27;20211;-77
2022/08/19 06:24:23;;;;;;;20.95;19.55;;;;;;;-141.02;68.51;81215.06;5153441;27;20199;-76
2022/08/19 06:26:53;;;;;;;20.48;19.17;;;;;;;-141.02;68.25;81217.00;5154952;27;20188;-74
2022/08/19 06:29:23;;;;;;;20.35;19.05;;;;;;;-141.02;67.58;81203.41;5156897;27;20196;-74
2022/08/19 06:31:54;;;;;;;20.27;18.98;;;;;;;-141.02;66.00;81158.75;5156814;27;20612;-78
2022/08/19 06:34:21;;;;;;;20.52;19.23;;;;;;;-141.02;66.00;81129.63;5157159;27;20196;-76
2022/08/19 06:36:51;;;;;;;20.67;19.30;;;;;;;-141.02;64.83;81162.63;5156738;27;20219;-77
2022/08/19 06:39:21;;;;;;;20.80;19.40;;;;;;;-141.02;65.58;81135.44;5157150;27;20255;-77
2022/08/19 06:41:50;;;;;;;19.98;18.67;;;;;;;-141.02;64.79;81110.22;5156660;27;20191;-77
2022/08/19 06:44:20;;;;;;;20.48;19.15;;;;;;;-141.02;63.38;80904.41;5156878;27;20279;-74
2022/08/19 06:46:48;;;;;;;21.02;19.63;;;;;;;-141.02;62.38;81042.25;5156587;27;20237;-73
2022/08/19 06:49:15;;;;;;;20.58;19.17;;;;;;;-141.02;62.07;81034.50;5156472;27;20286;-77
2022/08/19 06:51:43;;;;;;;20.60;19.20;;;;;;;-141.02;62.01;81007.31;5156812;27;20235;-73
2022/08/19 06:54:11;;;;;;;20.67;19.27;;;;;;;-141.02;61.85;81003.44;5157208;27;20517;-76
2022/08/19 06:56:38;;;;;;;20.58;19.17;;;;;;;-141.02;61.55;81005.38;5156600;27;20187;-74
2022/08/19 06:59:09;;;;;;;21.20;19.70;;;;;;;-141.02;61.29;80964.59;5156357;27;20304;-76
2022/08/19 07:01:39;;;;;;;21.05;19.55;;;;;;;-141.02;60.79;80970.44;5156289;27;20226;-73
2022/08/19 07:04:08;;;;;;;21.30;19.80;;;;;;;-141.02;59.93;80960.72;5156255;27;20677;-72
2022/08/19 07:06:36;;;;;;;21.70;20.20;;;;;;;-141.02;59.72;80918.00;5156464;27;20195;-74
2022/08/19 07:09:04;;;;;;;21.42;19.98;;;;;;;-141.02;59.14;80894.72;5156144;27;20288;-73
2022/08/19 07:11:32;;;;;;;21.52;20.02;;;;;;;-141.02;59.29;80921.91;5156020;27;20541;-76
2022/08/19 07:13:59;;;;;;;21.60;20.10;;;;;;;-141.02;57.95;80832.59;5156359;27;20212;-73
2022/08/19 07:16:27;;;;;;;21.42;19.92;;;;;;;-141.02;56.33;80791.81;5156141;27;20231;-75
2022/08/19 07:18:57;;;;;;;21.30;19.80;;;;;;;-141.02;56.21;80797.66;5156197;27;20650;-74
2022/08/19 07:21:27;;;;;;;21.85;20.33;;;;;;;-141.02;56.35;80801.53;5155871;27;20575;-78
2022/08/19 07:23:55;;;;;;;20.38;18.98;;;;;;;-141.02;55.92;80756.88;5155894;27;20190;-77
2022/08/19 07:26:24;;;;;;;21.10;19.60;;;;;;;-141.02;55.14;80696.69;5156334;27;20195;-75
2022/08/19 07:28:51;;;;;;;20.75;19.25;;;;;;;-141.02;55.31;80720.00;5156079;27;20581;-74
2022/08/19 07:31:21;;;;;;;21.60;20.10;;;;;;;-141.02;55.67;80772.41;5155662;27;20238;-79
2022/08/19 07:33:51;;;;;;;21.45;19.95;;;;;;;-141.02;54.88;80687.00;5156165;27;20234;-79
2022/08/19 07:36:22;;;;;;;20.90;19.40;;;;;;;-141.02;54.20;80735.53;5156082;27;20224;-77
2022/08/19 07:38:53;;;;;;;20.67;19.17;;;;;;;-141.02;53.84;80562.75;5155591;27;20260;-75
2022/08/19 07:41:23;;;;;;;20.08;18.67;;;;;;;-141.02;54.31;80650.13;5155808;27;20303;-77
2022/08/19 07:43:51;;;;;;;20.05;18.65;;;;;;;-141.02;53.34;80595.75;5157220;27;20256;-80
2022/08/19 07:46:20;;;;;;;20.05;18.65;;;;;;;-141.02;53.31;80613.22;5155664;27;20604;-75
2022/08/19 07:48:48;;;;;;;20.42;19.02;;;;;;;-141.02;53.60;80533.66;5155890;27;20199;-75
2022/08/19 07:51:18;;;;;;;19.40;18.00;;;;;;;-141.02;52.96;80483.16;5155294;27;20191;-78
2022/08/19 07:53:47;;;;;;;19.88;18.48;;;;;;;-141.02;52.87;80560.81;5155304;27;20235;-78
2022/08/19 07:56:15;;;;;;;19.70;18.25;;;;;;;-141.02;52.72;80545.28;5155758;27;20192;-80
2022/08/19 07:58:45;;;;;;;19.85;18.45;;;;;;;-141.02;51.54;80479.28;5155175;27;20667;-80
2022/08/19 08:01:14;;;;;;;19.77;18.27;;;;;;;-141.02;50.93;80314.31;5155335;27;20223;-74
2022/08/19 08:09:20;;;;;;;19.85;18.45;;;;;;;-141.02;51.02;80477.34;5155625;27;20245;-78
2022/08/19 08:11:50;;;;;;;19.95;18.55;;;;;;;-141.02;50.93;80454.06;5155216;27;20188;-77
2022/08/19 08:14:21;;;;;;;20.00;18.50;;;;;;;-141.02;50.53;80397.75;5155167;27;20192;-77
2022/08/19 08:16:49;;;;;;;19.73;18.33;;;;;;;-141.02;50.50;80366.72;5154643;27;20227;-78
2022/08/19 08:19:18;;;;;;;19.70;18.30;;;;;;;-141.02;49.66;80308.47;5154733;27;20220;-83
2022/08/19 08:21:45;;;;;;;20.08;18.67;;;;;;;-141.02;49.70;80362.81;5154737;27;20200;-80
2022/08/19 08:24:14;;;;;;;20.38;18.98;;;;;;;-141.02;49.86;80339.53;5155177;27;20192;-74
2022/08/19 08:26:42;;;;;;;20.40;19.00;;;;;;;-141.02;49.14;80277.41;5155722;27;20188;-74
2022/08/19 08:29:11;;;;;;;20.70;19.30;;;;;;;-141.02;48.88;80252.19;5154542;27;20234;-75
2022/08/19 08:31:38;;;;;;;20.38;18.98;;;;;;;-141.02;48.79;80261.91;5154752;27;20203;-75
2022/08/19 08:34:05;;;;;;;20.33;18.92;;;;;;;-141.02;47.69;80127.97;5154749;27;20192;-77
2022/08/19 08:36:33;;;;;;;20.35;18.95;;;;;;;-141.02;46.78;80079.44;5155869;27;20195;-76
2022/08/19 08:39:00;;;;;;;20.40;19.00;;;;;;;-141.02;46.81;80098.84;5154645;27;20274;-80
2022/08/19 08:41:35;;;;;;;20.55;19.05;;;;;;;-141.02;46.46;80098.84;5154792;27;20231;-75
2022/08/19 08:44:05;;;;;;;20.00;18.60;;;;;;;-141.02;46.92;80106.63;5155032;27;20187;-75
2022/08/19 08:46:39;;;;;;;20.15;18.77;;;;;;;-141.02;46.47;80106.63;5154289;27;20198;-83
2022/08/19 08:49:25;;;;;;;20.00;18.70;;;;;;;-141.02;46.53;80075.56;5153992;27;20660;-79
2022/08/19 08:51:56;;;;;;;22.02;20.40;;;;;;;-141.02;46.40;80102.75;5154956;27;20271;-74
2022/08/19 08:54:26;;;;;;;20.70;19.30;;;;;;;-141.02;46.99;80192.03;5154462;27;20188;-78
2022/08/19 08:56:55;;;;;;;20.55;19.15;;;;;;;-141.02;46.30;80112.44;5154483;27;20265;-77
2022/08/19 08:59:26;;;;;;;20.63;19.23;;;;;;;-141.02;45.71;80021.22;5154058;27;20188;-73
2022/08/19 09:01:53;;;;;;;20.13;18.73;;;;;;;-141.02;45.60;80083.31;5154400;27;20192;-76
2022/08/19 09:04:22;;;;;;;20.05;18.65;;;;;;;-141.02;45.38;80023.16;5154053;27;20196;-75
2022/08/19 09:06:55;;;;;;;20.90;19.40;;;;;;;-141.02;44.15;79928.06;5154290;27;20263;-74
2022/08/19 09:09:32;;;;;;;20.38;18.98;;;;;;;-141.02;44.09;79891.19;5154013;27;20191;-79
2022/08/19 09:12:11;;;;;;;20.50;19.10;;;;;;;-141.02;43.10;79829.09;5154052;27;20667;-76
2022/08/19 09:14:47;;;;;;;19.88;18.48;;;;;;;-141.02;43.42;79881.47;5154203;27;20290;-76
2022/08/19 09:17:16;;;;;;;19.80;18.40;;;;;;;-141.02;44.18;79924.19;5154007;27;20266;-80
2022/08/19 09:19:52;;;;;;;20.08;18.67;;;;;;;-141.02;44.88;79978.53;5153954;27;20192;-75
2022/08/19 09:22:21;;;;;;;19.98;18.58;;;;;;;-141.02;44.18;79889.25;5154138;27;20203;-75
2022/08/19 09:24:50;;;;;;;19.98;18.58;;;;;;;-141.02;43.76;79877.59;5153688;27;20199;-78
2022/08/19 09:27:18;;;;;;;20.10;18.70;;;;;;;-141.02;43.39;79865.97;5154128;27;20191;-77
2022/08/19 09:29:48;;;;;;;20.23;18.83;;;;;;;-141.02;42.85;79784.44;5154092;27;20240;-81
2022/08/19 09:32:15;;;;;;;20.42;19.02;;;;;;;-141.02;43.51;79852.38;5154033;27;20196;-79
2022/08/19 09:34:43;;;;;;;20.60;19.20;;;;;;;-141.02;42.92;79794.16;5154058;27;20188;-80
2022/08/19 09:37:10;;;;;;;24.70;22.88;;;;;;;-141.02;43.55;79864.00;5153660;27;20193;-73
2022/08/19 09:39:38;;;;;;;20.50;19.10;;;;;;;-141.02;42.51;79695.16;5153938;27;20219;-73
2022/08/19 09:42:10;;;;;;;20.70;19.30;;;;;;;-141.02;41.95;79675.75;5153744;27;20693;-77
2022/08/19 09:44:38;;;;;;;20.33;18.92;;;;;;;-141.02;41.56;79660.25;5154165;27;20188;-75
2022/08/19 09:47:05;;;;;;;20.65;19.25;;;;;;;-141.02;42.08;79714.59;5153675;27;20238;-76
2022/08/19 09:49:32;;;;;;;20.85;19.45;;;;;;;-141.02;42.14;79745.63;5153997;27;20188;-74
2022/08/19 09:52:00;;;;;;;21.08;19.67;;;;;;;-141.02;42.32;79732.03;5153920;27;20286;-74
2022/08/19 09:54:28;;;;;;;21.10;19.60;;;;;;;-141.02;42.12;79681.59;5153951;27;20200;-74
2022/08/19 09:56:56;;;;;;;21.15;19.75;;;;;;;-141.02;43.21;79883.41;5153454;27;20231;-77
2022/08/19 09:59:23;;;;;;;20.23;18.83;;;;;;;-141.02;42.11;79673.81;5154013;27;20200;-74
2022/08/19 10:01:52;;;;;;;19.80;18.40;;;;;;;-141.02;41.95;79702.94;5156709;27;20310;-72
2022/08/19 10:04:20;;;;;;;21.05;19.55;;;;;;;-141.02;42.02;79741.75;5157793;27;20188;-77
2022/08/19 10:06:49;;;;;;;20.52;19.13;;;;;;;-141.02;41.41;79617.56;5157390;27;20191;-75
2022/08/19 10:09:18;;;;;;;20.65;19.25;;;;;;;-141.02;40.79;79534.09;5157651;27;20681;-75
2022/08/19 10:11:47;;;;;;;20.92;19.45;;;;;;;-141.02;40.94;79590.38;5157613;27;20638;-76
2022/08/19 10:14:14;;;;;;;21.17;19.67;;;;;;;-141.02;40.81;79532.16;5157401;27;20586;-81
2022/08/19 10:16:42;;;;;;;20.95;19.55;;;;;;;-141.02;40.93;79629.19;5157545;27;20314;-80
2022/08/19 10:19:11;;;;;;;20.88;19.38;;;;;;;-141.02;41.42;79648.59;5157614;27;20223;-79
2022/08/19 10:21:38;;;;;;;21.50;20.10;;;;;;;-141.02;42.04;79734.00;5157361;27;20314;-75
2022/08/19 10:24:06;;;;;;;20.80;19.40;;;;;;;-141.02;41.43;79675.75;5157164;27;20663;-76
2022/08/19 10:26:37;;;;;;;21.02;19.63;;;;;;;-141.02;41.00;79629.19;5157330;27;20627;-74
2022/08/19 10:29:05;;;;;;;21.13;19.73;;;;;;;-141.02;40.65;79536.03;5157355;27;20194;-77
2022/08/19 10:31:34;;;;;;;21.10;19.70;;;;;;;-141.02;40.76;79514.69;5157190;27;20244;-76
2022/08/19 10:34:02;;;;;;;21.30;19.90;;;;;;;-141.02;40.91;79582.63;5157105;27;20200;-73
2022/08/19 10:36:32;;;;;;;20.83;19.42;;;;;;;-141.02;41.20;79629.19;5156817;27;20291;-78
2022/08/19 10:39:01;;;;;;;21.02;19.63;;;;;;;-141.02;41.10;79609.78;5156734;27;20729;-80
2022/08/19 10:41:31;;;;;;;21.48;19.98;;;;;;;-141.02;40.58;79547.69;5156634;27;20237;-80
2022/08/19 10:44:01;;;;;;;20.90;19.50;;;;;;;-141.02;40.42;79524.41;5157171;27;20234;-78
2022/08/19 10:46:32;;;;;;;21.20;19.80;;;;;;;-141.02;40.45;79497.22;5156921;27;20195;-79
2022/08/19 10:49:00;;;;;;;21.08;19.67;;;;;;;-141.02;40.41;79503.06;5156573;27;20188;-77
2022/08/19 10:54:12;;;;;;;21.08;19.58;;;;;;;-141.02;39.92;79400.19;5156984;27;20177;-78
2022/08/19 10:56:54;;;;;;;20.92;19.48;;;;;;;-141.02;40.02;79413.78;5156492;27;20614;-77
2022/08/19 10:59:23;;;;;;;22.02;20.33;;;;;;;-141.02;40.22;79458.41;5156927;27;20187;-81
2022/08/19 11:01:52;;;;;;;20.80;19.40;;;;;;;-141.02;40.24;79345.88;5156525;27;20309;-75
2022/08/19 11:04:22;;;;;;;21.02;19.63;;;;;;;-141.02;40.07;79229.44;5156360;27;20294;-78
2022/08/19 11:06:50;;;;;;;21.05;19.55;;;;;;;-141.02;40.73;79516.63;5156257;27;20199;-75
2022/08/19 11:09:23;;;;;;;20.90;19.50;;;;;;;-141.02;41.25;79594.25;5156506;27;20199;-76
2022/08/19 11:11:53;;;;;;;20.65;19.25;;;;;;;-141.02;40.37;79475.88;5155801;27;20184;-76
2022/08/19 11:14:22;;;;;;;20.75;19.25;;;;;;;-141.02;41.16;79648.59;5156102;27;20231;-78
2022/08/19 11:16:49;;;;;;;20.85;19.45;;;;;;;-141.02;40.76;79536.03;5156276;27;20227;-75
2022/08/19 11:19:18;;;;;;;20.83;19.42;;;;;;;-141.02;40.00;79419.63;5156276;27;20241;-74
2022/08/19 11:21:48;;;;;;;20.90;19.40;;;;;;;-141.02;39.57;79384.69;5156109;27;20227;-81
2022/08/19 11:24:20;;;;;;;20.48;19.08;;;;;;;-141.02;39.65;79388.56;5155950;27;20231;-76
2022/08/19 11:26:49;;;;;;;20.92;19.50;;;;;;;-141.02;39.87;79384.69;5155946;27;20564;-82
2022/08/19 11:29:18;;;;;;;20.77;19.38;;;;;;;-141.02;39.71;79396.31;5155825;27;20283;-76